createdAt,value
2023-03-19T00:01:15.807Z,11.90
2023-03-19T00:03:55.385Z,12.05
2023-03-19T00:06:31.407Z,13.13
2023-03-19T00:09:00.175Z,13.93
2023-03-19T00:11:33.593Z,15.32
2023-03-19T00:14:14.938Z,15.02
2023-03-19T00:16:48.899Z,14.55
2023-03-19T00:19:24.668Z,16.48
2023-03-19T00:22:03.952Z,15.25
2023-03-19T00:24:44.798Z,12.88
2023-03-19T00:27:18.962Z,12.40
2023-03-19T00:29:46.727Z,11.90
2023-03-19T00:32:50.706Z,11.27
2023-03-19T00:35:18.642Z,11.52
2023-03-19T00:37:51.467Z,12.35
2023-03-19T00:40:38.620Z,12.38
2023-03-19T00:43:09.537Z,11.98
2023-03-19T00:45:37.381Z,12.27
2023-03-19T00:48:22.763Z,11.13
2023-03-19T00:54:09.017Z,11.68
2023-03-19T00:56:39.266Z,11.52
2023-03-19T00:59:22.487Z,11.55
2023-03-19T01:01:52.795Z,10.88
2023-03-19T01:04:40.595Z,11.02
2023-03-19T01:10:27.213Z,12.52
2023-03-19T01:13:00.109Z,10.68
2023-03-19T01:15:29.772Z,11.55
2023-03-19T01:18:03.764Z,12.02
2023-03-19T01:20:31.983Z,12.30
2023-03-19T01:23:11.217Z,10.68
2023-03-19T01:25:46.497Z,11.68
2023-03-19T01:28:43.242Z,11.52
2023-03-19T01:31:17.236Z,12.07
2023-03-19T01:33:55.593Z,11.73
2023-03-19T01:36:29.287Z,11.35
2023-03-19T01:38:59.291Z,11.80
2023-03-19T01:41:32.543Z,12.65
2023-03-19T01:44:24.120Z,12.98
2023-03-19T01:47:13.782Z,13.73
2023-03-19T01:49:52.052Z,13.82
2023-03-19T01:52:30.201Z,13.23
2023-03-19T01:55:01.109Z,13.63
2023-03-19T01:57:32.454Z,13.43
2023-03-19T02:00:15.674Z,14.52
2023-03-19T02:02:48.434Z,14.95
2023-03-19T02:05:16.902Z,15.63
2023-03-19T02:07:53.153Z,15.07
2023-03-19T02:10:57.155Z,15.63
2023-03-19T02:13:25.942Z,16.33
2023-03-19T02:16:20.457Z,14.90
2023-03-19T02:19:02.783Z,13.27
2023-03-19T02:21:34.657Z,13.25
2023-03-19T02:24:33.141Z,14.13
2023-03-19T02:27:14.553Z,13.35
2023-03-19T02:29:42.615Z,14.30
2023-03-19T02:32:14.035Z,14.00
2023-03-19T02:35:06.826Z,14.13
2023-03-19T02:37:45.813Z,14.45
2023-03-19T02:40:18.350Z,14.05
2023-03-19T02:42:54.469Z,14.07
2023-03-19T02:45:22.640Z,12.45
2023-03-19T02:47:55.498Z,11.95
2023-03-19T02:50:28.650Z,11.70
2023-03-19T02:52:59.725Z,14.68
2023-03-19T02:55:28.750Z,12.73
2023-03-19T02:58:13.373Z,12.50
2023-03-19T03:00:42.538Z,12.88
2023-03-19T03:03:12.922Z,13.63
2023-03-19T03:05:49.971Z,12.30
2023-03-19T03:08:21.850Z,13.02
2023-03-19T03:10:54.836Z,13.20
2023-03-19T03:16:41.121Z,12.07
2023-03-19T03:19:08.922Z,12.68
2023-03-19T03:21:38.048Z,13.40
2023-03-19T03:24:49.843Z,13.68
2023-03-19T03:27:30.644Z,14.20
2023-03-19T03:29:58.372Z,12.85
2023-03-19T03:32:26.532Z,14.05
2023-03-19T03:34:54.415Z,11.95
2023-03-19T03:37:30.436Z,12.68
2023-03-19T03:40:00.976Z,13.82
2023-03-19T03:42:32.974Z,11.33
2023-03-19T03:45:04.882Z,13.00
2023-03-19T03:47:34.887Z,13.70
2023-03-19T03:50:05.656Z,13.88
2023-03-19T03:52:44.814Z,12.60
2023-03-19T03:55:13.808Z,11.60
2023-03-19T03:57:42.779Z,12.48
2023-03-19T04:00:21.998Z,12.70
2023-03-19T04:06:08.519Z,13.52
2023-03-19T04:08:41.405Z,13.93
2023-03-19T04:11:12.442Z,12.00
2023-03-19T04:13:46.598Z,12.93
2023-03-19T04:16:17.156Z,12.15
2023-03-19T04:19:02.482Z,12.50
2023-03-19T04:21:32.742Z,12.57
2023-03-19T04:24:08.920Z,12.15
2023-03-19T04:26:48.378Z,13.05
2023-03-19T04:29:41.106Z,16.70
2023-03-19T04:32:16.470Z,12.15
2023-03-19T04:34:45.503Z,13.15
2023-03-19T04:37:35.554Z,14.63
2023-03-19T04:43:47.645Z,13.63
2023-03-19T04:46:18.257Z,12.63
2023-03-19T04:49:03.778Z,12.80
2023-03-19T04:51:31.433Z,13.65
2023-03-19T04:53:59.317Z,14.63
2023-03-19T04:56:36.195Z,15.02
2023-03-19T04:59:06.479Z,14.50
2023-03-19T05:02:02.397Z,14.55
2023-03-19T05:04:34.246Z,13.60
2023-03-19T05:07:22.976Z,13.77
2023-03-19T05:09:51.291Z,14.98
2023-03-19T05:12:23.202Z,15.40
2023-03-19T05:14:58.316Z,14.70
2023-03-19T05:17:40.913Z,16.48
2023-03-19T05:20:36.981Z,15.40
2023-03-19T05:23:05.186Z,14.82
2023-03-19T05:25:42.327Z,13.55
2023-03-19T05:28:10.585Z,12.90
2023-03-19T05:30:38.469Z,12.13
2023-03-19T05:33:10.768Z,11.57
2023-03-19T05:35:47.193Z,13.50
2023-03-19T05:38:16.416Z,11.68
2023-03-19T05:40:47.444Z,11.85
2023-03-19T05:43:15.568Z,12.68
2023-03-19T05:45:44.698Z,11.95
2023-03-19T05:48:34.945Z,11.60
2023-03-19T05:51:05.568Z,10.95
2023-03-19T05:53:36.016Z,11.30
2023-03-19T05:56:07.153Z,12.15
2023-03-19T05:58:45.497Z,11.75
2023-03-19T06:01:14.539Z,12.20
2023-03-19T06:03:44.593Z,12.60
2023-03-19T06:06:23.080Z,12.75
2023-03-19T06:08:56.420Z,14.07
2023-03-19T06:11:24.446Z,14.05
2023-03-19T06:13:58.503Z,13.55
2023-03-19T06:16:28.401Z,14.63
2023-03-19T06:19:03.008Z,16.25
2023-03-19T06:21:33.796Z,15.85
2023-03-19T06:24:02.566Z,15.68
2023-03-19T06:26:31.818Z,16.25
2023-03-19T06:29:00.887Z,14.65
2023-03-19T06:31:28.821Z,16.40
2023-03-19T06:34:05.252Z,14.95
2023-03-19T06:36:35.302Z,16.40
2023-03-19T06:39:05.309Z,15.57
2023-03-19T06:41:46.610Z,15.05
2023-03-19T06:44:22.589Z,15.57
2023-03-19T06:46:52.325Z,16.88
2023-03-19T06:49:26.216Z,16.00
2023-03-19T06:51:54.188Z,16.20
2023-03-19T06:54:23.137Z,16.10
2023-03-19T06:56:52.324Z,14.98
2023-03-19T06:59:22.529Z,15.52
2023-03-19T07:02:00.996Z,14.40
2023-03-19T07:04:28.963Z,14.82
2023-03-19T07:07:03.678Z,14.73
2023-03-19T07:09:37.842Z,15.70
2023-03-19T07:12:06.226Z,17.33
2023-03-19T07:14:35.734Z,16.98
2023-03-19T07:17:03.948Z,17.65
2023-03-19T07:19:33.914Z,17.48
2023-03-19T07:22:01.890Z,17.65
2023-03-19T07:24:30.005Z,18.17
2023-03-19T07:27:01.250Z,19.00
2023-03-19T07:29:29.203Z,17.40
2023-03-19T07:32:07.221Z,18.00
2023-03-19T07:34:37.362Z,17.30
2023-03-19T07:37:08.768Z,16.65
2023-03-19T07:42:23.630Z,16.38
2023-03-19T07:45:17.951Z,16.75
2023-03-19T07:47:47.855Z,15.75
2023-03-19T07:50:16.623Z,15.13
2023-03-19T07:52:54.891Z,16.42
2023-03-19T07:55:22.835Z,16.58
2023-03-19T07:57:55.700Z,16.38
2023-03-19T08:00:33.039Z,17.13
2023-03-19T08:03:05.465Z,17.15
2023-03-19T08:05:34.805Z,15.27
2023-03-19T08:08:05.956Z,16.50
2023-03-19T08:10:36.503Z,14.98
2023-03-19T08:13:06.891Z,15.73
2023-03-19T08:15:34.924Z,14.50
2023-03-19T08:18:04.592Z,15.40
2023-03-19T08:20:34.788Z,14.93
2023-03-19T08:23:07.751Z,15.05
2023-03-19T08:25:35.690Z,16.40
2023-03-19T08:28:06.794Z,15.80
2023-03-19T08:30:35.217Z,14.82
2023-03-19T08:33:08.569Z,15.60
2023-03-19T08:35:47.149Z,15.20
2023-03-19T08:38:15.047Z,16.27
2023-03-19T08:40:43.482Z,14.93
2023-03-19T08:43:18.479Z,14.90
2023-03-19T08:45:52.667Z,16.27
2023-03-19T08:48:30.446Z,14.13
2023-03-19T08:51:05.662Z,14.43
2023-03-19T08:53:34.887Z,15.35
2023-03-19T08:56:04.042Z,14.85
2023-03-19T08:58:32.356Z,16.35
2023-03-19T09:01:06.657Z,13.93
2023-03-19T09:03:34.689Z,15.35
2023-03-19T09:06:04.424Z,14.98
2023-03-19T09:08:37.768Z,15.70
2023-03-19T09:11:09.373Z,15.43
2023-03-19T09:13:39.908Z,17.42
2023-03-19T09:16:09.446Z,16.60
2023-03-19T09:18:50.113Z,18.55
2023-03-19T09:21:19.515Z,17.63
2023-03-19T09:23:47.379Z,16.92
2023-03-19T09:26:19.746Z,17.90
2023-03-19T09:28:49.889Z,18.05
2023-03-19T09:31:29.558Z,17.25
2023-03-19T09:36:58.087Z,17.10
2023-03-19T09:43:09.190Z,15.88
2023-03-19T09:45:52.054Z,16.70
2023-03-19T09:57:39.267Z,16.60
2023-03-19T10:13:28.651Z,15.32
2023-03-19T10:32:11.845Z,14.50
2023-03-19T10:40:49.024Z,14.43
2023-03-19T10:43:31.627Z,15.27
2023-03-19T10:46:03.046Z,14.73
2023-03-19T10:51:26.797Z,14.38
2023-03-19T10:53:59.435Z,15.35
2023-03-19T10:57:00.474Z,14.20
2023-03-19T10:59:45.134Z,14.15
2023-03-19T11:02:42.947Z,14.90
2023-03-19T11:05:35.266Z,13.63
2023-03-19T11:08:35.269Z,14.18
2023-03-19T11:11:34.345Z,14.35
2023-03-19T11:14:10.125Z,14.13
2023-03-19T11:16:56.900Z,14.90
2023-03-19T11:19:34.481Z,14.63
2023-03-19T11:22:06.562Z,14.65
2023-03-19T11:24:57.167Z,12.98
2023-03-19T11:27:32.510Z,13.50
2023-03-19T11:30:06.495Z,13.77
2023-03-19T11:33:00.688Z,12.95
2023-03-19T11:35:58.574Z,12.88
2023-03-19T11:38:32.429Z,13.25
2023-03-19T11:41:22.760Z,13.73
2023-03-19T11:44:25.217Z,13.73
2023-03-19T11:47:14.903Z,13.02
2023-03-19T11:49:57.849Z,14.55
2023-03-19T11:52:29.758Z,13.02
2023-03-19T11:55:05.851Z,14.35
2023-03-19T11:57:34.326Z,14.48
2023-03-19T12:00:14.191Z,13.98
2023-03-19T12:03:11.446Z,14.07
2023-03-19T12:06:15.570Z,14.60
2023-03-19T12:08:59.875Z,14.25
2023-03-19T12:11:44.538Z,14.18
2023-03-19T12:14:14.046Z,14.13
2023-03-19T12:17:06.116Z,15.98
2023-03-19T12:19:53.255Z,14.43
2023-03-19T12:22:42.923Z,14.77
2023-03-19T12:25:33.198Z,14.63
2023-03-19T12:28:20.543Z,15.25
2023-03-19T12:34:38.744Z,14.50
2023-03-19T12:37:30.597Z,14.88
2023-03-19T12:40:15.400Z,14.02
2023-03-19T12:42:48.593Z,14.23
2023-03-19T12:45:44.780Z,15.00
2023-03-19T12:48:26.670Z,13.68
2023-03-19T12:50:59.658Z,14.35
2023-03-19T12:53:39.106Z,14.35
2023-03-19T12:56:15.348Z,13.65
2023-03-19T12:58:58.502Z,14.10
2023-03-19T13:01:36.551Z,13.88
2023-03-19T13:04:21.348Z,15.35
2023-03-19T13:07:10.810Z,13.65
2023-03-19T13:10:11.869Z,14.45
2023-03-19T13:12:43.843Z,14.10
2023-03-19T13:15:36.884Z,15.63
2023-03-19T13:18:09.792Z,13.85
2023-03-19T13:21:07.557Z,13.90
2023-03-19T13:23:38.450Z,13.43
2023-03-19T13:26:09.465Z,13.77
2023-03-19T13:28:58.359Z,14.20
2023-03-19T13:31:27.529Z,14.70
2023-03-19T13:33:58.918Z,14.15
2023-03-19T13:39:21.239Z,14.55
2023-03-19T13:42:12.466Z,15.02
2023-03-19T13:44:49.753Z,13.85
2023-03-19T13:47:41.890Z,13.32
2023-03-19T13:50:35.729Z,13.18
2023-03-19T13:53:18.609Z,13.77
2023-03-19T13:56:26.247Z,14.00
2023-03-19T14:15:06.433Z,13.48
2023-03-19T14:17:46.858Z,13.02
2023-03-19T14:23:42.956Z,13.27
2023-03-19T14:45:18.866Z,18.33
2023-03-19T14:51:30.430Z,18.30
2023-03-19T14:54:25.724Z,19.90
2023-03-19T15:31:50.932Z,12.70
2023-03-19T15:34:25.179Z,12.32
2023-03-19T15:36:56.297Z,13.30
2023-03-19T15:39:28.899Z,12.55
2023-03-19T15:42:02.047Z,14.32
2023-03-19T15:44:31.517Z,14.95
2023-03-19T15:47:05.167Z,15.40
2023-03-19T15:59:39.097Z,14.75
2023-03-19T16:05:27.083Z,16.30
2023-03-19T16:41:36.311Z,16.70
2023-03-19T16:47:23.749Z,16.73
2023-03-19T16:50:12.489Z,16.52
2023-03-19T16:55:54.641Z,16.73
2023-03-19T17:40:16.292Z,17.92
2023-03-19T17:42:49.323Z,19.48
2023-03-19T17:45:22.007Z,19.05
2023-03-19T17:48:02.352Z,18.48
2023-03-19T17:50:34.964Z,19.45
2023-03-19T17:53:11.597Z,19.45
2023-03-19T17:55:46.975Z,19.70
2023-03-19T17:58:25.732Z,19.27
2023-03-19T18:15:33.084Z,20.20
2023-03-19T18:21:23.189Z,20.30
2023-03-19T18:27:52.488Z,17.75
2023-03-19T18:37:19.301Z,18.42
2023-03-19T18:40:06.744Z,19.85
2023-03-19T18:52:09.534Z,18.08
2023-03-19T18:54:44.656Z,18.48
2023-03-19T18:57:17.388Z,18.50
2023-03-19T19:03:10.921Z,19.05
2023-03-19T19:05:41.417Z,17.88
2023-03-19T19:08:58.077Z,16.77
2023-03-19T19:30:44.176Z,19.50
2023-03-19T20:01:16.800Z,18.98
2023-03-19T20:03:51.601Z,19.90
2023-03-19T20:27:57.888Z,20.50
2023-03-19T20:39:53.451Z,19.58
2023-03-19T20:42:26.761Z,19.25
2023-03-19T21:44:23.384Z,18.73
2023-03-19T21:47:22.682Z,19.30
2023-03-19T21:55:29.707Z,18.27
2023-03-19T21:58:33.240Z,19.05
2023-03-19T22:20:49.095Z,19.02
2023-03-19T22:23:37.433Z,19.15
2023-03-19T22:26:38.098Z,18.73
2023-03-19T22:29:17.598Z,19.73
2023-03-19T23:21:03.687Z,17.38
2023-03-19T23:27:33.283Z,17.92
2023-03-19T23:33:17.912Z,17.52
